createdAt,value
2022-08-14T00:01:50.164Z,1.65
2022-08-14T00:04:36.065Z,1.40
2022-08-14T00:07:13.929Z,1.58
2022-08-14T00:09:55.770Z,1.58
2022-08-14T00:12:33.575Z,1.60
2022-08-14T00:15:29.973Z,1.60
2022-08-14T00:18:06.750Z,1.40
2022-08-14T00:20:43.076Z,1.45
2022-08-14T00:23:16.904Z,1.45
2022-08-14T00:25:53.738Z,1.30
2022-08-14T00:30:58.212Z,1.50
2022-08-14T00:33:50.585Z,1.37
2022-08-14T00:36:47.059Z,1.48
2022-08-14T00:39:02.286Z,1.52
2022-08-14T00:41:33.555Z,1.63
2022-08-14T00:44:00.599Z,1.35
2022-08-14T00:46:32.434Z,1.45
2022-08-14T00:49:00.872Z,1.30
2022-08-14T00:51:34.672Z,1.60
2022-08-14T00:54:11.200Z,1.40
2022-08-14T00:56:49.994Z,1.63
2022-08-14T00:59:16.942Z,1.40
2022-08-14T01:01:45.199Z,1.23
2022-08-14T01:04:52.453Z,1.45
2022-08-14T01:07:00.818Z,1.40
2022-08-14T01:12:03.392Z,1.50
2022-08-14T01:16:57.472Z,1.60
2022-08-14T01:19:43.756Z,1.67
2022-08-14T01:22:13.575Z,1.67
2022-08-14T01:24:46.888Z,1.50
2022-08-14T01:27:18.997Z,1.60
2022-08-14T01:29:58.966Z,1.65
2022-08-14T01:32:30.225Z,1.50
2022-08-14T01:35:17.957Z,1.80
2022-08-14T01:37:56.246Z,1.40
2022-08-14T01:40:36.518Z,1.45
2022-08-14T01:43:18.571Z,1.55
2022-08-14T01:46:06.191Z,2.03
2022-08-14T01:48:37.358Z,1.70
2022-08-14T01:51:18.713Z,1.50
2022-08-14T01:53:55.886Z,1.67
2022-08-14T01:56:37.326Z,1.77
2022-08-14T01:59:18.351Z,1.30
2022-08-14T02:01:58.046Z,1.60
2022-08-14T02:04:54.651Z,1.38
2022-08-14T02:07:17.303Z,1.63
2022-08-14T02:10:01.916Z,1.77
2022-08-14T02:12:33.285Z,1.48
2022-08-14T02:15:02.008Z,1.10
2022-08-14T02:17:30.799Z,1.50
2022-08-14T02:19:57.893Z,1.40
2022-08-14T02:22:29.019Z,1.30
2022-08-14T02:25:00.909Z,1.70
2022-08-14T02:28:23.307Z,1.40
2022-08-14T02:30:16.535Z,1.27
2022-08-14T02:32:45.841Z,1.65
2022-08-14T02:35:22.021Z,1.65
2022-08-14T02:37:53.390Z,1.50
2022-08-14T02:40:32.190Z,1.50
2022-08-14T02:43:02.392Z,1.98
2022-08-14T02:45:38.511Z,1.73
2022-08-14T02:49:02.759Z,1.67
2022-08-14T02:51:01.316Z,1.52
2022-08-14T02:53:30.025Z,1.90
2022-08-14T02:56:02.933Z,1.73
2022-08-14T02:58:33.373Z,1.70
2022-08-14T03:01:01.349Z,1.50
2022-08-14T03:03:31.493Z,1.63
2022-08-14T03:06:00.379Z,1.58
2022-08-14T03:08:31.656Z,1.40
2022-08-14T03:11:06.580Z,1.63
2022-08-14T03:13:35.912Z,1.77
2022-08-14T03:16:09.142Z,1.75
2022-08-14T03:18:52.529Z,1.75
2022-08-14T03:21:24.013Z,1.55
2022-08-14T03:24:03.069Z,1.50
2022-08-14T03:26:32.838Z,1.80
2022-08-14T03:29:01.555Z,1.27
2022-08-14T03:31:30.017Z,1.67
2022-08-14T03:34:00.277Z,1.80
2022-08-14T03:37:37.466Z,1.70
2022-08-14T03:39:22.114Z,1.55
2022-08-14T03:41:53.565Z,1.63
2022-08-14T03:45:19.740Z,1.60
2022-08-14T03:47:11.653Z,1.73
2022-08-14T03:49:42.428Z,1.50
2022-08-14T03:52:37.855Z,1.77
2022-08-14T03:54:58.841Z,1.67
2022-08-14T03:57:25.653Z,1.83
2022-08-14T03:59:52.562Z,1.73
2022-08-14T04:02:33.255Z,1.77
2022-08-14T04:05:12.941Z,1.90
2022-08-14T04:07:49.520Z,1.80
2022-08-14T04:10:32.128Z,1.73
2022-08-14T04:13:03.666Z,2.08
2022-08-14T04:15:56.671Z,1.60
2022-08-14T04:18:21.943Z,1.35
2022-08-14T04:20:54.223Z,1.83
2022-08-14T04:23:29.858Z,1.67
2022-08-14T04:26:02.006Z,1.60
2022-08-14T04:29:07.516Z,1.63
2022-08-14T04:31:16.803Z,1.80
2022-08-14T04:33:43.943Z,2.03
2022-08-14T04:36:15.857Z,1.60
2022-08-14T04:39:03.157Z,2.00
2022-08-14T04:41:53.309Z,1.55
2022-08-14T04:44:35.846Z,1.98
2022-08-14T04:47:22.235Z,1.98
2022-08-14T04:49:57.057Z,2.50
2022-08-14T04:52:25.358Z,1.67
2022-08-14T04:54:54.741Z,1.48
2022-08-14T04:57:22.825Z,1.85
2022-08-14T04:59:52.723Z,1.83
2022-08-14T05:02:21.464Z,1.63
2022-08-14T05:04:57.022Z,1.60
2022-08-14T05:07:46.974Z,1.75
2022-08-14T05:10:16.528Z,1.75
2022-08-14T05:13:14.480Z,1.70
2022-08-14T05:15:39.637Z,1.77
2022-08-14T05:18:37.109Z,1.60
2022-08-14T05:21:56.922Z,1.80
2022-08-14T05:23:51.966Z,1.52
2022-08-14T05:26:21.666Z,1.65
2022-08-14T05:28:48.902Z,1.60
2022-08-14T05:31:20.311Z,1.73
2022-08-14T05:33:56.552Z,1.73
2022-08-14T05:36:24.967Z,1.52
2022-08-14T05:38:53.212Z,1.60
2022-08-14T05:41:21.863Z,1.60
2022-08-14T05:43:51.168Z,1.52
2022-08-14T05:46:23.411Z,1.60
2022-08-14T05:48:53.418Z,1.70
2022-08-14T05:51:22.047Z,1.33
2022-08-14T05:54:01.654Z,1.23
2022-08-14T05:56:36.877Z,1.48
2022-08-14T05:59:04.115Z,1.48
2022-08-14T06:01:32.383Z,1.70
2022-08-14T06:04:00.407Z,1.58
2022-08-14T06:06:27.175Z,1.88
2022-08-14T06:08:54.109Z,1.30
2022-08-14T06:11:27.953Z,1.50
2022-08-14T06:13:58.694Z,1.42
2022-08-14T06:16:25.833Z,1.38
2022-08-14T06:18:53.294Z,1.55
2022-08-14T06:21:22.624Z,1.25
2022-08-14T06:23:49.954Z,1.27
2022-08-14T06:26:20.727Z,1.25
2022-08-14T06:28:51.976Z,1.50
2022-08-14T06:31:20.694Z,1.70
2022-08-14T06:35:03.560Z,1.73
2022-08-14T06:36:39.561Z,1.35
2022-08-14T06:39:08.074Z,1.17
2022-08-14T06:41:59.224Z,1.52
2022-08-14T06:44:32.929Z,1.50
2022-08-14T06:47:01.443Z,1.40
2022-08-14T06:49:28.323Z,1.17
2022-08-14T06:51:57.477Z,1.10
2022-08-14T06:54:31.705Z,1.33
2022-08-14T06:56:58.788Z,1.30
2022-08-14T06:59:25.600Z,1.30
2022-08-14T07:02:13.355Z,1.15
2022-08-14T07:05:05.500Z,1.20
2022-08-14T07:07:40.159Z,1.33
2022-08-14T07:10:16.953Z,1.40
2022-08-14T07:13:01.844Z,1.42
2022-08-14T07:15:32.519Z,1.20
2022-08-14T07:18:08.737Z,1.30
2022-08-14T07:20:36.778Z,1.38
2022-08-14T07:23:09.084Z,1.35
2022-08-14T07:25:40.014Z,1.60
2022-08-14T07:28:20.959Z,1.50
2022-08-14T07:30:50.737Z,1.33
2022-08-14T07:33:24.906Z,1.58
2022-08-14T07:36:01.980Z,1.42
2022-08-14T07:38:35.721Z,1.25
2022-08-14T07:41:11.993Z,1.38
2022-08-14T07:43:43.018Z,1.60
2022-08-14T07:46:11.464Z,1.67
2022-08-14T07:48:41.266Z,1.60
2022-08-14T07:51:10.854Z,1.80
2022-08-14T07:53:40.670Z,2.10
2022-08-14T07:56:21.682Z,2.15
2022-08-14T07:58:55.200Z,2.78
2022-08-14T08:01:27.757Z,2.28
2022-08-14T08:04:00.023Z,2.63
2022-08-14T08:06:28.319Z,2.23
2022-08-14T08:09:02.956Z,2.55
2022-08-14T08:11:35.015Z,2.60
2022-08-14T08:14:17.621Z,2.13
2022-08-14T08:16:47.455Z,2.10
2022-08-14T08:19:19.209Z,2.10
2022-08-14T08:21:47.101Z,1.92
2022-08-14T08:24:19.967Z,2.03
2022-08-14T08:26:50.332Z,2.05
2022-08-14T08:29:22.511Z,1.80
2022-08-14T08:31:55.719Z,1.73
2022-08-14T08:34:23.621Z,1.67
2022-08-14T08:36:51.554Z,1.40
2022-08-14T08:39:22.223Z,1.60
2022-08-14T08:41:53.762Z,1.25
2022-08-14T08:44:31.690Z,1.38
2022-08-14T08:47:07.936Z,1.38
2022-08-14T08:49:43.247Z,1.40
2022-08-14T08:52:25.520Z,1.10
2022-08-14T08:54:56.323Z,1.48
2022-08-14T08:57:24.277Z,1.50
2022-08-14T08:59:54.671Z,1.70
2022-08-14T09:02:22.650Z,1.05
2022-08-14T09:05:01.993Z,1.98
2022-08-14T09:07:29.095Z,1.17
2022-08-14T09:09:59.313Z,1.40
2022-08-14T09:12:32.594Z,1.52
2022-08-14T09:15:08.894Z,1.48
2022-08-14T09:17:40.292Z,1.30
2022-08-14T09:20:11.969Z,1.25
2022-08-14T09:22:42.620Z,1.25
2022-08-14T09:25:16.355Z,1.23
2022-08-14T09:27:43.326Z,1.30
2022-08-14T09:30:30.957Z,1.13
2022-08-14T09:33:11.715Z,1.10
2022-08-14T09:36:07.991Z,1.00
2022-08-14T09:38:37.756Z,1.05
2022-08-14T09:42:21.022Z,1.60
2022-08-14T09:45:09.000Z,1.17
2022-08-14T09:47:46.642Z,1.30
2022-08-14T09:50:31.302Z,1.30
2022-08-14T09:53:04.811Z,1.13
2022-08-14T09:55:41.366Z,1.20
2022-08-14T09:58:19.909Z,1.20
2022-08-14T10:00:57.374Z,1.00
2022-08-14T10:03:33.064Z,1.02
2022-08-14T10:06:12.010Z,1.30
2022-08-14T10:09:03.194Z,1.08
2022-08-14T10:11:37.780Z,1.10
2022-08-14T10:14:34.588Z,0.98
2022-08-14T10:17:06.389Z,1.20
2022-08-14T10:19:35.746Z,0.95
2022-08-14T10:23:11.984Z,1.33
2022-08-14T10:25:00.729Z,1.30
2022-08-14T10:27:28.726Z,1.10
2022-08-14T10:30:01.023Z,1.00
2022-08-14T10:32:40.184Z,1.00
2022-08-14T10:35:16.770Z,1.20
2022-08-14T10:37:49.978Z,1.33
2022-08-14T10:40:38.432Z,1.30
2022-08-14T10:43:18.509Z,0.90
2022-08-14T10:46:03.403Z,0.93
2022-08-14T10:48:57.029Z,1.30
2022-08-14T10:54:01.909Z,1.00
2022-08-14T10:56:51.709Z,0.98
2022-08-14T10:59:18.945Z,1.17
2022-08-14T11:01:45.994Z,1.00
2022-08-14T11:04:28.625Z,1.10
2022-08-14T11:06:57.250Z,1.25
2022-08-14T11:09:25.966Z,1.17
2022-08-14T11:12:34.488Z,1.20
2022-08-14T11:14:59.028Z,1.15
2022-08-14T11:17:32.389Z,0.90
2022-08-14T11:20:01.442Z,1.27
2022-08-14T11:22:55.811Z,1.08
2022-08-14T11:25:20.467Z,1.20
2022-08-14T11:27:49.917Z,1.20
2022-08-14T11:30:50.034Z,1.02
2022-08-14T11:33:09.064Z,1.10
2022-08-14T11:35:47.294Z,1.08
2022-08-14T11:38:19.940Z,1.33
2022-08-14T11:40:47.682Z,1.15
2022-08-14T11:43:16.236Z,0.88
2022-08-14T11:45:48.034Z,1.10
2022-08-14T11:49:03.153Z,1.00
2022-08-14T11:51:25.990Z,1.30
2022-08-14T11:54:00.635Z,0.85
2022-08-14T11:56:35.671Z,0.93
2022-08-14T11:59:02.648Z,1.20
2022-08-14T12:01:33.366Z,1.30
2022-08-14T12:04:21.786Z,1.30
2022-08-14T12:07:01.239Z,1.13
2022-08-14T12:09:38.524Z,1.20
2022-08-14T12:12:35.919Z,1.05
2022-08-14T12:15:05.426Z,1.25
2022-08-14T12:17:53.210Z,0.98
2022-08-14T12:20:32.564Z,1.70
2022-08-14T12:23:02.641Z,1.27
2022-08-14T12:25:34.676Z,1.00
2022-08-14T12:28:08.513Z,1.20
2022-08-14T12:30:42.894Z,1.40
2022-08-14T12:33:30.652Z,1.20
2022-08-14T12:36:04.242Z,1.05
2022-08-14T12:38:43.614Z,1.08
2022-08-14T12:41:24.079Z,1.15
2022-08-14T12:43:59.766Z,0.80
2022-08-14T12:46:30.429Z,0.93
2022-08-14T12:49:00.193Z,1.10
2022-08-14T12:51:30.602Z,1.10
2022-08-14T12:53:59.553Z,1.30
2022-08-14T12:56:32.897Z,1.13
2022-08-14T12:59:02.754Z,1.50
2022-08-14T13:01:59.493Z,1.20
2022-08-14T13:04:21.533Z,1.05
2022-08-14T13:06:51.208Z,1.50
2022-08-14T13:09:20.048Z,1.00
2022-08-14T13:11:58.975Z,1.08
2022-08-14T13:17:05.211Z,1.63
2022-08-14T13:19:35.585Z,1.48
2022-08-14T13:22:10.131Z,1.15
2022-08-14T13:24:47.696Z,1.30
2022-08-14T13:27:14.893Z,1.00
2022-08-14T13:32:15.015Z,1.10
2022-08-14T13:34:45.600Z,1.73
2022-08-14T13:37:15.091Z,1.20
2022-08-14T13:39:56.543Z,1.00
2022-08-14T13:42:30.557Z,1.33
2022-08-14T13:45:01.103Z,1.20
2022-08-14T13:47:29.804Z,1.67
2022-08-14T13:50:02.729Z,0.90
2022-08-14T13:52:58.254Z,0.98
2022-08-14T13:55:30.128Z,0.90
2022-08-14T13:58:03.226Z,1.00
2022-08-14T14:00:35.989Z,1.05
2022-08-14T14:03:21.911Z,0.80
2022-08-14T14:05:54.636Z,0.93
2022-08-14T14:08:43.277Z,0.80
2022-08-14T14:11:16.062Z,1.00
2022-08-14T14:13:45.726Z,0.70
2022-08-14T14:16:15.400Z,0.80
2022-08-14T14:18:52.032Z,0.90
2022-08-14T14:21:21.528Z,0.90
2022-08-14T14:23:49.342Z,0.90
2022-08-14T14:26:23.302Z,1.00
2022-08-14T14:28:58.102Z,1.60
2022-08-14T14:31:29.566Z,1.00
2022-08-14T14:34:12.325Z,1.02
2022-08-14T14:36:52.640Z,1.00
2022-08-14T14:39:28.811Z,1.02
2022-08-14T14:41:59.442Z,0.95
2022-08-14T14:44:33.791Z,1.00
2022-08-14T14:47:01.637Z,1.00
2022-08-14T14:49:51.392Z,1.08
2022-08-14T14:52:27.000Z,1.10
2022-08-14T14:54:59.459Z,1.00
2022-08-14T14:57:34.822Z,1.02
2022-08-14T15:00:08.816Z,0.90
2022-08-14T15:02:48.086Z,1.00
2022-08-14T15:05:19.080Z,0.98
2022-08-14T15:07:49.293Z,1.10
2022-08-14T15:10:28.037Z,1.05
2022-08-14T15:13:03.617Z,0.80
2022-08-14T15:15:32.761Z,1.10
2022-08-14T15:18:01.171Z,0.80
2022-08-14T15:20:30.381Z,0.77
2022-08-14T15:23:00.752Z,0.88
2022-08-14T15:25:29.962Z,1.40
2022-08-14T15:27:57.050Z,0.90
2022-08-14T15:30:32.037Z,1.52
2022-08-14T15:32:59.545Z,0.77
2022-08-14T15:35:33.884Z,0.90
2022-08-14T15:38:07.912Z,0.80
2022-08-14T15:40:40.320Z,0.98
2022-08-14T15:43:10.859Z,0.77
2022-08-14T15:45:41.327Z,0.93
2022-08-14T15:48:14.025Z,0.90
2022-08-14T15:50:50.766Z,1.00
2022-08-14T15:53:18.772Z,1.42
2022-08-14T15:55:48.460Z,1.75
2022-08-14T15:58:20.203Z,3.30
2022-08-14T16:01:07.478Z,3.17
2022-08-14T16:03:35.163Z,1.13
2022-08-14T16:06:10.858Z,1.00
2022-08-14T16:08:43.533Z,0.85
2022-08-14T16:11:11.529Z,0.70
2022-08-14T16:13:45.585Z,0.90
2022-08-14T16:16:34.736Z,0.65
2022-08-14T16:19:17.497Z,0.73
2022-08-14T16:22:01.956Z,0.85
2022-08-14T16:24:35.783Z,0.80
2022-08-14T16:27:05.177Z,0.90
2022-08-14T16:29:34.551Z,0.80
2022-08-14T16:32:33.051Z,0.70
2022-08-14T16:34:54.731Z,0.82
2022-08-14T16:37:31.166Z,0.88
2022-08-14T16:40:01.971Z,0.80
2022-08-14T16:43:02.329Z,0.90
2022-08-14T16:45:26.098Z,0.90
2022-08-14T16:47:54.945Z,0.70
2022-08-14T16:50:43.019Z,0.85
2022-08-14T16:53:10.482Z,0.77
2022-08-14T16:55:53.306Z,0.80
2022-08-14T16:58:29.575Z,0.80
2022-08-14T17:01:16.526Z,1.10
2022-08-14T17:04:08.699Z,0.93
2022-08-14T17:07:11.777Z,0.98
2022-08-14T17:09:50.512Z,0.90
2022-08-14T17:12:34.882Z,1.05
2022-08-14T17:15:09.764Z,1.48
2022-08-14T17:17:40.142Z,1.13
2022-08-14T17:20:44.413Z,1.00
2022-08-14T17:23:10.888Z,1.10
2022-08-14T17:25:38.235Z,1.10
2022-08-14T17:28:51.944Z,0.90
2022-08-14T17:31:19.167Z,1.15
2022-08-14T17:33:52.531Z,1.10
2022-08-14T17:36:22.520Z,1.20
2022-08-14T17:39:13.349Z,1.10
2022-08-14T17:41:48.392Z,1.10
2022-08-14T17:44:45.626Z,1.17
2022-08-14T17:47:18.391Z,1.17
2022-08-14T17:49:52.358Z,1.40
2022-08-14T17:52:34.300Z,1.33
2022-08-14T17:56:02.087Z,1.20
2022-08-14T17:58:00.516Z,1.20
2022-08-14T18:00:28.548Z,1.30
2022-08-14T18:02:58.590Z,1.52
2022-08-14T18:06:09.687Z,1.60
2022-08-14T18:08:34.445Z,1.27
2022-08-14T18:11:03.377Z,1.23
2022-08-14T18:13:51.371Z,1.30
2022-08-14T18:16:20.566Z,1.45
2022-08-14T18:18:49.713Z,1.80
2022-08-14T18:21:24.050Z,1.42
2022-08-14T18:24:05.131Z,1.35
2022-08-14T18:27:01.874Z,1.50
2022-08-14T18:29:31.553Z,1.60
2022-08-14T18:31:59.249Z,1.27
2022-08-14T18:34:48.524Z,1.40
2022-08-14T18:37:21.140Z,1.23
2022-08-14T18:40:01.282Z,1.25
2022-08-14T18:42:34.812Z,1.55
2022-08-14T18:45:02.177Z,1.40
2022-08-14T18:48:03.585Z,1.50
2022-08-14T18:50:32.355Z,1.67
2022-08-14T18:53:07.441Z,1.45
2022-08-14T18:55:53.343Z,1.30
2022-08-14T18:58:31.139Z,1.80
2022-08-14T19:01:01.389Z,1.60
2022-08-14T19:03:34.124Z,1.50
2022-08-14T19:06:08.884Z,1.45
2022-08-14T19:08:42.769Z,1.70
2022-08-14T19:11:34.287Z,1.60
2022-08-14T19:16:34.987Z,1.77
2022-08-14T19:19:06.940Z,1.60
2022-08-14T19:21:38.408Z,1.70
2022-08-14T19:24:27.576Z,1.55
2022-08-14T19:27:19.703Z,1.65
2022-08-14T19:30:20.386Z,1.70
2022-08-14T19:32:52.327Z,1.48
2022-08-14T19:35:49.315Z,1.20
2022-08-14T19:38:33.445Z,1.60
2022-08-14T19:41:12.705Z,1.45
2022-08-14T19:43:55.452Z,1.73
2022-08-14T19:46:37.557Z,1.40
2022-08-14T19:49:06.751Z,1.67
2022-08-14T19:51:46.957Z,1.73
2022-08-14T19:54:16.017Z,1.90
2022-08-14T19:56:45.833Z,1.73
2022-08-14T19:59:19.133Z,1.90
2022-08-14T20:01:51.313Z,1.70
2022-08-14T20:04:46.085Z,1.85
2022-08-14T20:08:00.202Z,1.70
2022-08-14T20:11:07.095Z,1.70
2022-08-14T20:13:32.372Z,1.65
2022-08-14T20:16:11.995Z,1.63
2022-08-14T20:18:50.723Z,1.77
2022-08-14T20:21:18.532Z,2.00
2022-08-14T20:23:48.064Z,2.05
2022-08-14T20:26:31.176Z,1.90
2022-08-14T20:29:05.039Z,2.30
2022-08-14T20:31:37.519Z,1.70
2022-08-14T20:34:24.048Z,2.15
2022-08-14T20:37:04.353Z,2.55
2022-08-14T20:39:34.608Z,1.83
2022-08-14T20:42:38.844Z,2.22
2022-08-14T20:45:21.532Z,1.80
2022-08-14T20:47:58.354Z,1.50
2022-08-14T20:50:28.603Z,1.80
2022-08-14T20:53:00.649Z,2.22
2022-08-14T20:55:41.694Z,1.60
2022-08-14T20:58:43.753Z,2.00
2022-08-14T21:01:18.263Z,1.80
2022-08-14T21:03:57.028Z,2.10
2022-08-14T21:07:23.291Z,1.60
2022-08-14T21:10:03.270Z,1.70
2022-08-14T21:12:33.868Z,1.60
2022-08-14T21:15:05.049Z,1.90
2022-08-14T21:17:38.270Z,1.80
2022-08-14T21:20:26.224Z,1.80
2022-08-14T21:22:56.586Z,2.10
2022-08-14T21:25:29.009Z,1.80
2022-08-14T21:28:01.766Z,1.73
2022-08-14T21:30:51.317Z,1.83
2022-08-14T21:33:20.550Z,1.63
2022-08-14T21:35:55.536Z,1.60
2022-08-14T21:38:33.893Z,1.80
2022-08-14T21:41:42.386Z,1.50
2022-08-14T21:44:18.287Z,1.85
2022-08-14T21:46:53.587Z,1.98
2022-08-14T21:49:37.514Z,1.90
2022-08-14T21:52:51.048Z,1.80
2022-08-14T21:55:09.627Z,1.77
2022-08-14T21:58:45.761Z,1.70
2022-08-14T22:00:35.301Z,1.70
2022-08-14T22:03:08.873Z,1.70
2022-08-14T22:05:41.317Z,1.90
2022-08-14T22:08:12.428Z,1.60
2022-08-14T22:10:42.945Z,1.85
2022-08-14T22:13:18.010Z,1.98
2022-08-14T22:15:49.420Z,2.00
2022-08-14T22:18:20.418Z,1.95
2022-08-14T22:20:53.743Z,1.88
2022-08-14T22:23:23.119Z,1.80
2022-08-14T22:25:51.103Z,1.85
2022-08-14T22:28:32.754Z,2.28
2022-08-14T22:31:10.496Z,1.70
2022-08-14T22:33:38.525Z,1.95
2022-08-14T22:36:26.305Z,1.90
2022-08-14T22:38:56.479Z,1.77
2022-08-14T22:41:26.877Z,1.95
2022-08-14T22:44:03.591Z,1.77
2022-08-14T22:46:31.075Z,1.65
2022-08-14T22:48:57.950Z,1.70
2022-08-14T22:51:27.562Z,2.00
2022-08-14T22:53:56.655Z,1.92
2022-08-14T22:56:29.217Z,1.90
2022-08-14T22:58:58.879Z,1.90
2022-08-14T23:01:55.729Z,1.90
2022-08-14T23:04:34.091Z,1.88
2022-08-14T23:07:05.316Z,1.95
2022-08-14T23:12:05.591Z,2.28
2022-08-14T23:14:52.347Z,1.65
2022-08-14T23:17:19.154Z,2.10
2022-08-14T23:19:46.698Z,2.08
2022-08-14T23:22:16.903Z,1.95
2022-08-14T23:24:44.052Z,2.00
2022-08-14T23:27:20.937Z,2.05
2022-08-14T23:29:55.486Z,2.22
2022-08-14T23:32:22.414Z,2.22
2022-08-14T23:34:51.693Z,1.80
2022-08-14T23:37:19.276Z,2.13
2022-08-14T23:39:53.939Z,1.92
2022-08-14T23:42:22.279Z,2.05
2022-08-14T23:45:07.903Z,2.00
2022-08-14T23:47:51.619Z,2.00
2022-08-14T23:50:38.565Z,2.20
2022-08-14T23:53:28.643Z,2.35
2022-08-14T23:56:04.276Z,2.00
2022-08-14T23:58:32.176Z,2.20
